createdAt,value
2018-09-17T00:01:59.948Z,17.77
2018-09-17T00:04:34.870Z,17.33
2018-09-17T00:07:09.556Z,16.77
2018-09-17T00:09:43.983Z,18.23
2018-09-17T00:12:18.436Z,16.83
2018-09-17T00:14:52.791Z,16.70
2018-09-17T00:17:27.183Z,16.50
2018-09-17T00:20:01.601Z,16.13
2018-09-17T00:22:35.873Z,18.30
2018-09-17T00:25:10.775Z,15.10
2018-09-17T00:27:45.112Z,15.20
2018-09-17T00:30:20.184Z,14.93
2018-09-17T00:32:54.771Z,15.50
2018-09-17T00:35:29.037Z,14.70
2018-09-17T00:38:03.847Z,15.80
2018-09-17T00:40:38.798Z,15.40
2018-09-17T00:43:13.265Z,14.97
2018-09-17T00:45:48.275Z,15.57
2018-09-17T00:48:22.904Z,15.87
2018-09-17T00:50:57.613Z,14.47
2018-09-17T00:53:33.239Z,15.07
2018-09-17T00:56:07.860Z,14.97
2018-09-17T00:58:42.115Z,13.70
2018-09-17T01:01:16.587Z,14.03
2018-09-17T01:03:51.320Z,14.90
2018-09-17T01:06:26.231Z,15.57
2018-09-17T01:09:01.460Z,14.07
2018-09-17T01:11:36.051Z,14.97
2018-09-17T01:14:10.939Z,13.77
2018-09-17T01:16:45.615Z,14.17
2018-09-17T01:19:20.240Z,14.13
2018-09-17T01:21:54.776Z,13.17
2018-09-17T01:24:29.524Z,13.50
2018-09-17T01:27:04.432Z,14.60
2018-09-17T01:29:39.015Z,13.80
2018-09-17T01:32:13.702Z,15.37
2018-09-17T01:34:48.099Z,14.77
2018-09-17T01:37:22.367Z,13.50
2018-09-17T01:39:57.148Z,13.93
2018-09-17T01:42:31.544Z,14.27
2018-09-17T01:45:06.033Z,13.77
2018-09-17T01:47:40.763Z,14.37
2018-09-17T01:50:15.683Z,15.00
2018-09-17T01:52:49.936Z,14.53
2018-09-17T01:55:24.743Z,14.77
2018-09-17T01:57:59.147Z,13.50
2018-09-17T02:00:33.900Z,13.33
2018-09-17T02:03:08.747Z,14.87
2018-09-17T02:05:43.448Z,12.67
2018-09-17T02:08:18.728Z,12.10
2018-09-17T02:10:53.643Z,13.20
2018-09-17T02:13:28.960Z,13.40
2018-09-17T02:16:03.611Z,13.20
2018-09-17T02:18:38.116Z,12.40
2018-09-17T02:21:13.507Z,14.77
2018-09-17T02:23:48.696Z,14.07
2018-09-17T02:26:23.244Z,14.20
2018-09-17T02:28:58.153Z,14.50
2018-09-17T02:31:32.468Z,13.80
2018-09-17T02:34:07.189Z,12.63
2018-09-17T02:36:42.552Z,12.53
2018-09-17T02:39:17.252Z,12.60
2018-09-17T02:41:52.342Z,13.30
2018-09-17T02:44:26.772Z,12.73
2018-09-17T02:47:01.524Z,14.03
2018-09-17T02:49:35.905Z,13.97
2018-09-17T02:52:10.437Z,13.83
2018-09-17T02:54:45.181Z,14.10
2018-09-17T02:57:19.587Z,13.70
2018-09-17T02:59:54.256Z,13.53
2018-09-17T03:02:28.865Z,13.73
2018-09-17T03:05:04.205Z,13.53
2018-09-17T03:07:38.735Z,13.10
2018-09-17T03:10:13.738Z,13.47
2018-09-17T03:12:48.995Z,13.73
2018-09-17T03:15:34.988Z,14.83
2018-09-17T03:18:09.799Z,15.07
2018-09-17T03:20:44.591Z,13.93
2018-09-17T03:23:19.791Z,13.93
2018-09-17T03:25:54.423Z,13.13
2018-09-17T03:28:29.042Z,13.23
2018-09-17T03:31:03.631Z,13.00
2018-09-17T03:33:38.327Z,12.30
2018-09-17T03:36:12.641Z,12.70
2018-09-17T03:38:48.120Z,13.00
2018-09-17T03:41:22.746Z,12.10
2018-09-17T03:43:57.622Z,11.63
2018-09-17T03:46:32.004Z,11.83
2018-09-17T03:49:07.567Z,12.07
2018-09-17T03:51:42.601Z,10.83
2018-09-17T03:54:17.121Z,10.80
2018-09-17T03:56:51.592Z,10.93
2018-09-17T03:59:26.274Z,11.10
2018-09-17T04:02:00.827Z,11.20
2018-09-17T04:04:35.955Z,10.80
2018-09-17T04:07:11.479Z,11.47
2018-09-17T04:09:45.854Z,10.67
2018-09-17T04:12:20.632Z,11.60
2018-09-17T04:14:55.183Z,11.20
2018-09-17T04:17:29.679Z,11.40
2018-09-17T04:20:05.130Z,10.47
2018-09-17T04:22:39.556Z,10.87
2018-09-17T04:25:14.740Z,11.83
2018-09-17T04:27:49.692Z,12.17
2018-09-17T04:30:24.348Z,11.40
2018-09-17T04:32:59.298Z,11.00
2018-09-17T04:35:34.015Z,11.03
2018-09-17T04:38:08.324Z,10.47
2018-09-17T04:40:42.933Z,10.13
2018-09-17T04:43:17.499Z,10.43
2018-09-17T04:45:56.439Z,11.00
2018-09-17T04:48:31.567Z,10.93
2018-09-17T04:51:06.764Z,11.20
2018-09-17T04:53:41.452Z,11.60
2018-09-17T04:56:15.857Z,11.37
2018-09-17T04:58:50.644Z,12.07
2018-09-17T05:01:25.247Z,12.13
2018-09-17T05:03:59.628Z,11.60
2018-09-17T05:06:33.984Z,12.87
2018-09-17T05:09:10.136Z,12.33
2018-09-17T05:11:44.876Z,11.73
2018-09-17T05:14:19.515Z,11.90
2018-09-17T05:16:54.072Z,12.67
2018-09-17T05:19:28.511Z,11.93
2018-09-17T05:22:02.822Z,12.23
2018-09-17T05:24:37.631Z,12.07
2018-09-17T05:27:12.507Z,11.87
2018-09-17T05:29:47.008Z,11.83
2018-09-17T05:32:21.474Z,10.87
2018-09-17T05:34:56.772Z,11.10
2018-09-17T05:37:31.539Z,11.43
2018-09-17T05:40:06.272Z,12.07
2018-09-17T05:42:41.511Z,10.93
2018-09-17T05:45:16.343Z,14.63
2018-09-17T05:47:50.764Z,12.10
2018-09-17T05:50:25.628Z,12.73
2018-09-17T05:53:00.032Z,12.77
2018-09-17T05:55:34.417Z,12.03
2018-09-17T05:58:09.255Z,12.40
2018-09-17T06:00:43.761Z,12.60
2018-09-17T06:03:18.667Z,12.87
2018-09-17T06:05:54.263Z,12.97
2018-09-17T06:08:29.417Z,13.67
2018-09-17T06:11:04.200Z,13.27
2018-09-17T06:13:39.816Z,13.10
2018-09-17T06:16:14.512Z,13.33
2018-09-17T06:18:49.944Z,13.10
2018-09-17T06:21:24.992Z,13.40
2018-09-17T06:23:59.364Z,13.17
2018-09-17T06:26:34.403Z,14.27
2018-09-17T06:29:08.972Z,13.10
2018-09-17T06:31:43.520Z,13.33
2018-09-17T06:34:18.196Z,13.10
2018-09-17T06:36:52.516Z,13.77
2018-09-17T06:39:27.144Z,12.20
2018-09-17T06:42:01.669Z,14.07
2018-09-17T06:44:36.119Z,12.63
2018-09-17T06:47:10.983Z,13.03
2018-09-17T06:49:45.441Z,13.80
2018-09-17T06:52:19.764Z,13.10
2018-09-17T06:54:54.159Z,13.50
2018-09-17T06:57:29.007Z,12.87
2018-09-17T07:00:03.799Z,14.23
2018-09-17T07:02:38.143Z,13.73
2018-09-17T07:05:12.768Z,13.10
2018-09-17T07:07:47.448Z,13.50
2018-09-17T07:10:22.214Z,15.43
2018-09-17T07:12:56.823Z,13.50
2018-09-17T07:15:31.105Z,13.50
2018-09-17T07:18:06.396Z,13.87
2018-09-17T07:20:41.315Z,15.97
2018-09-17T07:23:16.079Z,13.10
2018-09-17T07:25:50.560Z,13.83
2018-09-17T07:28:25.312Z,13.93
2018-09-17T07:30:59.695Z,13.40
2018-09-17T07:33:34.719Z,13.87
2018-09-17T07:36:09.493Z,13.40
2018-09-17T07:38:44.454Z,13.17
2018-09-17T07:41:19.416Z,13.00
2018-09-17T07:43:53.830Z,13.83
2018-09-17T07:46:28.927Z,15.90
2018-09-17T07:49:04.180Z,13.77
2018-09-17T07:51:38.654Z,14.67
2018-09-17T07:54:13.127Z,15.90
2018-09-17T07:56:47.971Z,15.00
2018-09-17T07:59:22.680Z,14.17
2018-09-17T08:01:57.244Z,15.07
2018-09-17T08:04:32.039Z,14.27
2018-09-17T08:07:07.320Z,14.53
2018-09-17T08:09:42.137Z,13.47
2018-09-17T08:12:16.400Z,13.57
2018-09-17T08:14:50.826Z,12.67
2018-09-17T08:17:25.363Z,11.43
2018-09-17T08:19:59.887Z,11.20
2018-09-17T08:22:34.371Z,12.53
2018-09-17T08:25:09.879Z,14.97
2018-09-17T08:27:44.295Z,10.87
2018-09-17T08:30:19.262Z,13.80
2018-09-17T08:32:54.124Z,11.27
2018-09-17T08:35:29.424Z,11.37
2018-09-17T08:38:04.227Z,12.07
2018-09-17T08:40:38.830Z,9.87
2018-09-17T08:43:13.576Z,9.43
2018-09-17T08:45:48.076Z,9.33
2018-09-17T08:48:22.347Z,9.50
2018-09-17T08:50:57.159Z,9.77
2018-09-17T08:53:31.796Z,8.97
2018-09-17T08:56:12.244Z,9.60
2018-09-17T08:58:52.608Z,9.53
2018-09-17T09:01:34.288Z,8.53
2018-09-17T09:04:14.166Z,8.77
2018-09-17T09:06:55.960Z,9.47
2018-09-17T09:09:30.316Z,8.40
2018-09-17T09:12:10.811Z,10.40
2018-09-17T09:14:45.977Z,8.33
2018-09-17T09:17:20.739Z,8.03
2018-09-17T09:19:55.319Z,7.87
2018-09-17T09:22:29.919Z,7.27
2018-09-17T09:25:04.768Z,9.43
2018-09-17T09:27:39.104Z,8.13
2018-09-17T09:30:13.543Z,8.60
2018-09-17T09:32:48.708Z,7.73
2018-09-17T09:35:23.484Z,6.20
2018-09-17T09:37:58.036Z,6.47
2018-09-17T09:40:32.603Z,6.37
2018-09-17T09:43:07.639Z,6.33
2018-09-17T09:45:43.425Z,7.03
2018-09-17T09:48:18.048Z,6.93
2018-09-17T09:50:52.552Z,6.40
2018-09-17T09:53:27.383Z,6.90
2018-09-17T09:56:02.051Z,5.40
2018-09-17T09:58:36.536Z,6.30
2018-09-17T10:01:16.467Z,5.47
2018-09-17T10:03:56.369Z,6.10
2018-09-17T10:06:30.959Z,5.87
2018-09-17T10:09:12.832Z,7.23
2018-09-17T10:11:52.588Z,7.37
2018-09-17T10:14:32.503Z,6.73
2018-09-17T10:18:16.255Z,5.73
2018-09-17T10:20:51.097Z,6.07
2018-09-17T10:23:25.435Z,5.60
2018-09-17T10:26:00.296Z,6.27
2018-09-17T10:28:35.399Z,5.63
2018-09-17T10:31:09.941Z,4.97
2018-09-17T10:33:44.316Z,5.07
2018-09-17T10:36:19.796Z,5.40
2018-09-17T10:38:54.425Z,5.83
2018-09-17T10:41:28.942Z,6.83
2018-09-17T10:44:04.332Z,5.67
2018-09-17T10:46:39.036Z,6.73
2018-09-17T10:49:13.751Z,5.17
2018-09-17T10:51:48.074Z,5.73
2018-09-17T10:54:22.495Z,5.20
2018-09-17T10:56:56.949Z,5.53
2018-09-17T10:59:31.211Z,5.10
2018-09-17T11:02:06.435Z,5.20
2018-09-17T11:04:41.177Z,6.47
2018-09-17T11:07:15.463Z,5.60
2018-09-17T11:09:55.127Z,5.97
2018-09-17T11:12:30.425Z,4.93
2018-09-17T11:15:05.702Z,5.23
2018-09-17T11:17:40.298Z,4.47
2018-09-17T11:20:15.244Z,5.57
2018-09-17T11:22:49.660Z,5.33
2018-09-17T11:25:23.955Z,5.97
2018-09-17T11:27:58.415Z,7.87
2018-09-17T11:30:32.956Z,5.73
2018-09-17T11:33:08.351Z,4.40
2018-09-17T11:35:43.828Z,4.73
2018-09-17T11:38:18.516Z,4.73
2018-09-17T11:40:52.979Z,4.50
2018-09-17T11:43:28.007Z,5.03
2018-09-17T11:46:02.461Z,5.87
2018-09-17T11:48:36.899Z,6.17
2018-09-17T11:51:11.543Z,5.07
2018-09-17T11:53:46.183Z,5.17
2018-09-17T11:56:21.392Z,8.93
2018-09-17T11:58:55.943Z,4.87
2018-09-17T12:01:36.354Z,6.63
2018-09-17T12:04:14.156Z,4.87
2018-09-17T12:06:53.896Z,5.37
2018-09-17T12:09:29.204Z,5.10
2018-09-17T12:12:03.997Z,7.80
2018-09-17T12:14:38.511Z,5.60
2018-09-17T12:17:12.927Z,4.80
2018-09-17T12:19:47.628Z,6.17
2018-09-17T12:22:22.283Z,4.73
2018-09-17T12:24:57.019Z,6.10
2018-09-17T12:27:31.942Z,4.60
2018-09-17T12:30:06.767Z,5.23
2018-09-17T12:32:41.215Z,4.97
2018-09-17T12:35:15.835Z,5.47
2018-09-17T12:37:50.203Z,4.90
2018-09-17T12:40:26.139Z,5.80
2018-09-17T12:43:00.732Z,5.00
2018-09-17T12:45:35.104Z,5.00
2018-09-17T12:48:09.351Z,5.33
2018-09-17T12:50:44.444Z,4.60
2018-09-17T12:53:18.950Z,4.80
2018-09-17T12:55:53.707Z,8.40
2018-09-17T12:58:28.756Z,5.30
2018-09-17T13:01:03.706Z,5.60
2018-09-17T13:03:39.051Z,5.40
2018-09-17T13:06:13.703Z,5.37
2018-09-17T13:08:48.293Z,5.87
2018-09-17T13:11:23.252Z,5.20
2018-09-17T13:13:58.416Z,5.20
2018-09-17T13:16:33.131Z,7.13
2018-09-17T13:19:10.256Z,5.00
2018-09-17T13:21:44.647Z,6.27
2018-09-17T13:24:19.422Z,4.57
2018-09-17T13:26:54.139Z,5.60
2018-09-17T13:29:28.904Z,5.23
2018-09-17T13:32:06.040Z,7.80
2018-09-17T13:34:40.870Z,5.07
2018-09-17T13:37:15.448Z,5.20
2018-09-17T13:39:50.121Z,7.37
2018-09-17T13:42:25.823Z,5.47
2018-09-17T13:45:00.868Z,5.60
2018-09-17T13:47:35.567Z,5.40
2018-09-17T13:50:10.124Z,6.23
2018-09-17T13:52:45.052Z,6.43
2018-09-17T13:55:20.217Z,5.00
2018-09-17T13:57:55.166Z,5.03
2018-09-17T14:00:31.088Z,5.83
2018-09-17T14:03:07.978Z,5.00
2018-09-17T14:05:43.105Z,5.73
2018-09-17T14:08:17.757Z,5.30
2018-09-17T14:10:52.208Z,6.83
2018-09-17T14:13:26.688Z,5.47
2018-09-17T14:16:12.739Z,5.30
2018-09-17T14:18:47.573Z,7.00
2018-09-17T14:21:22.171Z,4.97
2018-09-17T14:23:56.909Z,5.43
2018-09-17T14:26:31.620Z,5.83
2018-09-17T14:29:06.463Z,5.50
2018-09-17T14:31:46.783Z,6.20
2018-09-17T14:34:21.292Z,5.40
2018-09-17T14:36:56.368Z,5.13
2018-09-17T14:39:31.345Z,4.67
2018-09-17T14:42:06.847Z,5.40
2018-09-17T14:44:41.323Z,7.20
2018-09-17T14:47:16.495Z,5.57
2018-09-17T14:49:50.903Z,4.83
2018-09-17T14:52:26.099Z,5.10
2018-09-17T14:55:01.159Z,5.27
2018-09-17T14:57:35.675Z,5.23
2018-09-17T15:00:09.980Z,7.53
2018-09-17T15:02:44.890Z,5.20
2018-09-17T15:05:19.526Z,6.50
2018-09-17T15:07:54.135Z,4.60
2018-09-17T15:10:29.029Z,4.73
2018-09-17T15:13:04.111Z,4.93
2018-09-17T15:15:44.283Z,6.77
2018-09-17T15:18:18.811Z,5.03
2018-09-17T15:20:54.095Z,4.50
2018-09-17T15:23:28.643Z,4.40
2018-09-17T15:26:03.285Z,6.23
2018-09-17T15:28:38.586Z,4.83
2018-09-17T15:31:13.354Z,5.33
2018-09-17T15:33:48.294Z,4.87
2018-09-17T15:36:24.869Z,6.07
2018-09-17T15:38:59.669Z,4.30
2018-09-17T15:41:35.185Z,4.70
2018-09-17T15:44:10.280Z,5.80
2018-09-17T15:46:44.996Z,4.60
2018-09-17T15:49:19.761Z,5.10
2018-09-17T15:51:54.512Z,6.67
2018-09-17T15:54:29.315Z,5.63
2018-09-17T15:57:04.487Z,4.77
2018-09-17T15:59:38.988Z,4.67
2018-09-17T16:02:13.619Z,4.73
2018-09-17T16:04:47.905Z,4.47
2018-09-17T16:07:22.617Z,5.50
2018-09-17T16:09:57.131Z,5.43
2018-09-17T16:12:31.687Z,5.13
2018-09-17T16:15:06.444Z,4.90
2018-09-17T16:17:40.854Z,4.90
2018-09-17T16:20:15.312Z,4.70
2018-09-17T16:22:49.763Z,4.43
2018-09-17T16:25:24.247Z,6.07
2018-09-17T16:27:58.886Z,4.77
2018-09-17T16:30:33.591Z,5.80
2018-09-17T16:33:08.051Z,5.00
2018-09-17T16:35:42.436Z,4.87
2018-09-17T16:38:16.787Z,4.80
2018-09-17T16:40:51.097Z,8.90
2018-09-17T16:43:25.889Z,4.60
2018-09-17T16:46:00.530Z,4.80
2018-09-17T16:48:35.007Z,5.27
2018-09-17T16:51:09.831Z,5.57
2018-09-17T16:53:45.050Z,5.83
2018-09-17T16:56:19.838Z,8.43
2018-09-17T16:58:55.074Z,5.67
2018-09-17T17:01:30.648Z,5.30
2018-09-17T17:04:05.270Z,5.50
2018-09-17T17:06:40.089Z,5.70
2018-09-17T17:09:14.579Z,5.60
2018-09-17T17:11:49.279Z,5.63
2018-09-17T17:14:24.077Z,6.30
2018-09-17T17:16:58.695Z,5.90
2018-09-17T17:19:33.411Z,5.40
2018-09-17T17:22:08.096Z,5.57
2018-09-17T17:24:42.973Z,5.87
2018-09-17T17:27:17.232Z,5.67
2018-09-17T17:29:52.677Z,6.10
2018-09-17T17:32:27.548Z,6.20
2018-09-17T17:35:01.888Z,6.87
2018-09-17T17:37:36.941Z,6.17
2018-09-17T17:40:12.306Z,7.50
2018-09-17T17:42:46.983Z,6.00
2018-09-17T17:45:22.138Z,7.33
2018-09-17T17:47:57.534Z,6.17
2018-09-17T17:50:32.242Z,5.67
2018-09-17T17:53:07.241Z,6.30
2018-09-17T17:55:41.742Z,6.43
2018-09-17T17:58:16.331Z,6.10
2018-09-17T18:00:52.985Z,6.53
2018-09-17T18:03:28.724Z,6.03
2018-09-17T18:06:03.388Z,6.27
2018-09-17T18:08:38.978Z,6.63
2018-09-17T18:11:16.517Z,6.87
2018-09-17T18:16:55.076Z,6.57
2018-09-17T18:19:29.632Z,6.73
2018-09-17T18:22:04.719Z,6.67
2018-09-17T18:24:39.418Z,7.23
2018-09-17T18:27:14.260Z,7.33
2018-09-17T18:29:48.822Z,7.60
2018-09-17T18:32:23.408Z,7.37
2018-09-17T18:34:57.939Z,6.70
2018-09-17T18:37:32.634Z,7.00
2018-09-17T18:40:07.887Z,7.17
2018-09-17T18:42:42.271Z,7.60
2018-09-17T18:45:17.139Z,6.90
2018-09-17T18:47:52.148Z,9.00
2018-09-17T18:50:26.840Z,7.30
2018-09-17T18:53:01.661Z,7.97
2018-09-17T18:55:36.333Z,7.43
2018-09-17T18:58:10.967Z,7.90
2018-09-17T19:00:47.519Z,7.77
2018-09-17T19:03:22.143Z,8.07
2018-09-17T19:05:56.952Z,8.33
2018-09-17T19:08:31.692Z,9.30
2018-09-17T19:11:06.832Z,10.93
2018-09-17T19:13:53.346Z,11.30
2018-09-17T19:16:33.147Z,10.90
2018-09-17T19:19:08.876Z,12.43
2018-09-17T19:21:49.219Z,14.03
2018-09-17T19:24:23.924Z,17.33
2018-09-17T19:26:58.775Z,13.07
2018-09-17T19:29:33.383Z,14.97
2018-09-17T19:32:08.228Z,12.50
2018-09-17T19:34:43.377Z,13.97
2018-09-17T19:38:26.709Z,13.67
2018-09-17T19:41:02.168Z,13.20
2018-09-17T19:43:39.593Z,14.57
2018-09-17T19:46:17.129Z,14.90
2018-09-17T19:48:52.318Z,13.20
2018-09-17T19:51:32.331Z,13.27
2018-09-17T19:54:06.871Z,12.83
2018-09-17T19:56:42.910Z,12.77
2018-09-17T19:59:23.031Z,15.03
2018-09-17T20:01:58.492Z,13.53
2018-09-17T20:04:42.264Z,12.40
2018-09-17T20:07:16.768Z,12.23
2018-09-17T20:10:00.973Z,13.43
2018-09-17T20:12:35.857Z,12.47
2018-09-17T20:15:10.740Z,12.83
2018-09-17T20:17:48.233Z,15.80
2018-09-17T20:20:23.426Z,12.20
2018-09-17T20:22:59.063Z,11.97
2018-09-17T20:25:33.981Z,11.83
2018-09-17T20:28:08.389Z,12.70
2018-09-17T20:30:43.924Z,13.97
2018-09-17T20:33:18.927Z,12.10
2018-09-17T20:35:53.480Z,12.23
2018-09-17T20:38:28.137Z,13.67
2018-09-17T20:41:03.469Z,12.43
2018-09-17T20:43:38.071Z,10.97
2018-09-17T20:46:12.911Z,11.63
2018-09-17T20:48:48.138Z,11.63
2018-09-17T20:51:22.768Z,11.73
2018-09-17T20:53:57.504Z,11.93
2018-09-17T20:56:32.073Z,11.37
2018-09-17T20:59:13.156Z,11.83
2018-09-17T21:01:47.915Z,12.10
2018-09-17T21:04:22.529Z,12.80
2018-09-17T21:06:56.987Z,11.03
2018-09-17T21:09:32.011Z,11.63
2018-09-17T21:12:06.906Z,11.30
2018-09-17T21:14:41.583Z,10.50
2018-09-17T21:17:16.373Z,11.33
2018-09-17T21:19:51.820Z,11.67
2018-09-17T21:22:26.800Z,12.77
2018-09-17T21:25:01.888Z,12.03
2018-09-17T21:27:36.976Z,12.10
2018-09-17T21:30:12.056Z,12.53
2018-09-17T21:32:46.935Z,11.63
2018-09-17T21:35:22.052Z,11.83
2018-09-17T21:37:57.538Z,11.50
2018-09-17T21:40:32.491Z,12.67
2018-09-17T21:43:07.180Z,12.57
2018-09-17T21:45:41.704Z,13.30
2018-09-17T21:48:16.340Z,14.37
2018-09-17T21:50:51.299Z,15.03
2018-09-17T21:53:25.805Z,14.03
2018-09-17T21:56:00.607Z,15.93
2018-09-17T21:58:35.082Z,17.03
2018-09-17T22:01:10.608Z,13.37
2018-09-17T22:03:45.191Z,13.30
2018-09-17T22:06:19.855Z,12.53
2018-09-17T22:08:54.160Z,14.33
2018-09-17T22:11:28.679Z,17.67
2018-09-17T22:14:03.329Z,16.70
2018-09-17T22:16:37.875Z,14.67
2018-09-17T22:19:12.388Z,15.67
2018-09-17T22:21:47.651Z,16.73
2018-09-17T22:24:22.294Z,14.97
2018-09-17T22:26:59.276Z,14.20
2018-09-17T22:29:33.751Z,13.57
2018-09-17T22:32:08.548Z,13.40
2018-09-17T22:34:44.245Z,12.87
2018-09-17T22:37:18.532Z,13.10
2018-09-17T22:39:53.259Z,12.20
2018-09-17T22:42:28.331Z,11.13
2018-09-17T22:45:02.743Z,12.83
2018-09-17T22:47:37.184Z,10.90
2018-09-17T22:50:11.743Z,11.63
2018-09-17T22:52:46.496Z,12.17
2018-09-17T22:55:21.052Z,11.20
2018-09-17T22:57:56.003Z,12.77
2018-09-17T23:00:30.339Z,11.00
2018-09-17T23:03:05.207Z,11.80
2018-09-17T23:05:40.050Z,11.17
2018-09-17T23:08:14.564Z,11.70
2018-09-17T23:10:49.177Z,11.73
2018-09-17T23:13:23.604Z,11.80
2018-09-17T23:15:58.531Z,10.70
2018-09-17T23:18:32.899Z,11.73
2018-09-17T23:21:07.785Z,12.17
2018-09-17T23:23:42.279Z,11.37
2018-09-17T23:26:17.573Z,11.60
2018-09-17T23:28:51.954Z,11.20
2018-09-17T23:31:26.717Z,10.80
2018-09-17T23:34:01.632Z,11.60
2018-09-17T23:36:36.063Z,10.93
2018-09-17T23:39:11.574Z,11.17
2018-09-17T23:41:46.173Z,10.80
2018-09-17T23:44:20.483Z,11.23
2018-09-17T23:46:55.431Z,10.87
2018-09-17T23:49:29.892Z,11.83
2018-09-17T23:52:04.615Z,11.47
2018-09-17T23:54:39.388Z,11.77
2018-09-17T23:57:13.956Z,11.77
2018-09-17T23:59:48.687Z,12.43
